Christmas Island, Australian Islands

11:30 AM CXT on August 02, 2014 (GMT +0700)
Christmas Island (YPXM) Elev 860 ft | 10.45 °S, 105.69 °E | Change Station

Current weather conditions updated 30 minutes ago

Overcast
Overcast
77 °F
Feels Like 77 °F
N
14
Wind Variable Wind from ESE

Today is forecast to be nearly the same temperature as yesterday.

Today
High -- | Low -- °F
--% Chance of Precip.
Yesterday
High -- | Low -- °F
Precip. -- in
6:13 AM 5:53 PM
Waxing Crescent, 32% visible
Pressure 29.98 in
Visibility 6.2 miles
Clouds Overcast 1300 ft
Dew Point 70 °F
Humidity 78%
Rainfall 0.00 in
Snow Depth Not available.
UV 4 out of 12
Pollen Not available.
Air Quality Not available.
Flu Activity Not available.
SPECI YPXM 020400Z AUTO 11012KT 9999 // OVC013 25/21 Q1015

More Conditions Fewer Conditions

Pressure 29.98 in
Visibility 6.2 miles
Clouds Overcast 1300 ft
Dew Point 70 °F
Humidity 78%
Rainfall 0.00 in
Snow Depth Not available.
UV 4 out of 12
Pollen Not available.
Air Quality Not available.
Flu Activity Not available.
SPECI YPXM 020400Z AUTO 11012KT 9999 // OVC013 25/21 Q1015

More Conditions Fewer Conditions

10-Day Weather Forecast

Almanac

Astronomy

Aug. 02, 2014 Rise Set
Actual Time 6:13 AM CXT 5:53 PM CXT
Civil Twilight 5:51 AM CXT 6:15 PM CXT
Nautical Twilight 5:26 AM CXT 6:41 PM CXT
Astronomical Twilight 5:00 AM CXT 7:06 PM CXT
Moon 10:14 AM CXT 10:49 PM CXT
Length of Visible Light 12h 24m
Length of Day
11h 40m
Tomorrow will be 0m 24s longer.
Waxing Crescent, 32% of the Moon is Illuminated
Today
Waxing Crescent
Aug 3
First Quarter
Aug 10
Full
Aug 17
Last Quarter
Aug 25
New

Yesterday's Extremes

Country Highs Country Lows

Community

WunderPhotos

Upload Photos

1,739,820 photos uploaded!

Nearby

Snow Depth

Not available.

Earthquake Activity

City Distance Mag. Time & Date
No recent earthquake activity has been reported nearby.
Minimum magnitude displayed is 2.5.

Coastal Water Temperatures

Place Temperature
No Stations Reporting

Nearby Weather Stations

There are no personal weather stations in this area.